LTCJ Airport Information

Runway Information
Runway 02 Length 10000 ft width 150 ft
Elevation 1796 ft Threshold 0 ft Heading 26
Runway 20 Length 10000 ft Width 150 ft
Elevation 1822 ft Threshold 0 ft Heading 206
Airport Frequencies
Type APP Name DIYARBAKIR Frequency 122.1 MHZ
Type GND Name GND Frequency 121.95 MHZ
Type TWR Name TWR Frequency 122.1 MHZ
Airport Navaids
Type TACAN Name Batman Frequency 111600 KHZ
Type VOR-DME Name Batman Frequency 116200 KHZ
Type NDB Name Batman Frequency 470 KHZ
Airport Weather Information & NOTAM
ADDS - METARS form results

(2216 UTC 19 September 2018)
Data provider http://aviationweather.gov/metar/data/
 
METAR text: LTCJ 192150Z VRB02KT CAVOK 18/07 Q1010
Conditions at: LTCJ (BATMAN (TUR-AFB), TR) observed 2150 UTC 19 September 2018
Temperature: 18.0°C (64°F)
Dewpoint: 7.0°C (45°F) [RH = 49%]
Pressure (altimeter): 29.82 inches Hg (1010.0 mb)
Winds: variable direction winds at 2 MPH (2 knots; 1.0 m/s)
Visibility: 6 or more miles (10+ km)
Ceiling: ceiling and visibility are OK
Clouds: unknown
Weather: no significant weather observed at this time

METAR text: LTCJ 192120Z VRB02KT CAVOK 19/07 Q1010
Conditions at: LTCJ (BATMAN (TUR-AFB), TR) observed 2120 UTC 19 September 2018
Temperature: 19.0°C (66°F)
Dewpoint: 7.0°C (45°F) [RH = 46%]
Pressure (altimeter): 29.82 inches Hg (1010.0 mb)
Winds: variable direction winds at 2 MPH (2 knots; 1.0 m/s)
Visibility: 6 or more miles (10+ km)
Ceiling: ceiling and visibility are OK
Clouds: unknown
Weather: no significant weather observed at this time

Forecast for: LTCJ (BATMAN (TUR-AFB), TR)
Text: TAF LTCJ 191640Z 1918/2018 VRB02KT CAVOK
Forecast period: 1800 UTC 19 September 2018 to 1800 UTC 20 September 2018
Forecast type: FROM: standard forecast or significant change
Winds: variable direction winds at 2 MPH (2 knots; 1.0 m/s)
Visibility: 6 or more miles 10+ km)
Ceiling: unknown
Clouds: missing
Weather: NSW  (no significant weather)